sensor_id;sensor_type;location;lat;lon;timestamp;pressure;altitude;pressure_sealevel;temperature;humidity
54936;BME280;40838;50.676;7.838;2023-04-28T00:00:22;98111.81;;;7.77;65.50
54936;BME280;40838;50.676;7.838;2023-04-28T00:03:08;98111.00;;;7.61;65.70
54936;BME280;40838;50.676;7.838;2023-04-28T00:05:35;98102.78;;;7.58;65.77
54936;BME280;40838;50.676;7.838;2023-04-28T00:08:01;98094.28;;;7.51;66.43
54936;BME280;40838;50.676;7.838;2023-04-28T00:10:45;98096.16;;;7.55;67.22
54936;BME280;40838;50.676;7.838;2023-04-28T00:13:12;98080.00;;;7.67;65.73
54936;BME280;40838;50.676;7.838;2023-04-28T00:15:59;98095.63;;;7.58;66.04
54936;BME280;40838;50.676;7.838;2023-04-28T00:21:13;98089.25;;;7.54;66.47
54936;BME280;40838;50.676;7.838;2023-04-28T00:23:40;98083.97;;;7.54;66.82
54936;BME280;40838;50.676;7.838;2023-04-28T00:26:06;98079.41;;;7.45;66.20
54936;BME280;40838;50.676;7.838;2023-04-28T00:28:33;98068.56;;;7.41;67.39
54936;BME280;40838;50.676;7.838;2023-04-28T00:31:00;98070.16;;;7.52;67.19
54936;BME280;40838;50.676;7.838;2023-04-28T00:33:44;98059.28;;;7.54;68.21
54936;BME280;40838;50.676;7.838;2023-04-28T00:38:59;98053.47;;;7.52;68.02
54936;BME280;40838;50.676;7.838;2023-04-28T00:41:25;98041.50;;;7.39;69.31
54936;BME280;40838;50.676;7.838;2023-04-28T00:46:55;98029.06;;;7.50;67.21
54936;BME280;40838;50.676;7.838;2023-04-28T00:49:41;98031.69;;;7.39;68.07
54936;BME280;40838;50.676;7.838;2023-04-28T00:52:09;98026.41;;;7.39;71.71
54936;BME280;40838;50.676;7.838;2023-04-28T00:55:14;98035.09;;;7.14;72.59
54936;BME280;40838;50.676;7.838;2023-04-28T00:57:42;98034.59;;;7.28;72.29
54936;BME280;40838;50.676;7.838;2023-04-28T01:02:56;98026.34;;;7.19;76.88
54936;BME280;40838;50.676;7.838;2023-04-28T01:05:24;98019.97;;;7.10;78.38
54936;BME280;40838;50.676;7.838;2023-04-28T01:07:51;98023.69;;;7.19;78.88
54936;BME280;40838;50.676;7.838;2023-04-28T01:10:20;98026.59;;;7.02;81.41
54936;BME280;40838;50.676;7.838;2023-04-28T01:16:08;98017.28;;;6.94;78.21
54936;BME280;40838;50.676;7.838;2023-04-28T01:18:35;98015.75;;;7.14;77.36
54936;BME280;40838;50.676;7.838;2023-04-28T01:21:03;98030.03;;;7.03;77.05
54936;BME280;40838;50.676;7.838;2023-04-28T01:23:50;98012.06;;;7.20;76.42
54936;BME280;40838;50.676;7.838;2023-04-28T01:26:35;98024.22;;;7.16;77.71
54936;BME280;40838;50.676;7.838;2023-04-28T01:29:01;98021.56;;;7.21;77.59
54936;BME280;40838;50.676;7.838;2023-04-28T01:31:46;98021.03;;;7.14;81.63
54936;BME280;40838;50.676;7.838;2023-04-28T01:34:32;98023.38;;;7.00;82.10
54936;BME280;40838;50.676;7.838;2023-04-28T01:40:04;97994.53;;;6.99;86.44
54936;BME280;40838;50.676;7.838;2023-04-28T01:45:53;97993.16;;;6.86;90.01
54936;BME280;40838;50.676;7.838;2023-04-28T01:48:38;97993.94;;;6.76;89.11
54936;BME280;40838;50.676;7.838;2023-04-28T01:54:28;97978.03;;;6.71;92.35
54936;BME280;40838;50.676;7.838;2023-04-28T01:57:15;97979.06;;;6.65;93.16
54936;BME280;40838;50.676;7.838;2023-04-28T02:05:36;97967.72;;;6.69;91.20
54936;BME280;40838;50.676;7.838;2023-04-28T02:11:07;97964.84;;;6.91;86.32
54936;BME280;40838;50.676;7.838;2023-04-28T02:16:38;97955.84;;;6.87;86.27
54936;BME280;40838;50.676;7.838;2023-04-28T02:19:05;97956.13;;;7.01;84.95
54936;BME280;40838;50.676;7.838;2023-04-28T02:24:17;97972.34;;;7.30;84.12
54936;BME280;40838;50.676;7.838;2023-04-28T02:26:43;97982.69;;;7.32;82.38
54936;BME280;40838;50.676;7.838;2023-04-28T02:29:10;97982.63;;;7.06;83.54
54936;BME280;40838;50.676;7.838;2023-04-28T02:32:15;97984.50;;;7.21;82.80
54936;BME280;40838;50.676;7.838;2023-04-28T02:37:27;97978.13;;;7.17;85.08
54936;BME280;40838;50.676;7.838;2023-04-28T02:40:29;97969.66;;;7.20;86.25
54936;BME280;40838;50.676;7.838;2023-04-28T02:43:14;97978.09;;;6.91;86.19
54936;BME280;40838;50.676;7.838;2023-04-28T02:48:45;97971.25;;;7.11;85.47
54936;BME280;40838;50.676;7.838;2023-04-28T02:53:57;97967.69;;;6.64;94.84
54936;BME280;40838;50.676;7.838;2023-04-28T03:05:25;97966.25;;;5.89;100.00
54936;BME280;40838;50.676;7.838;2023-04-28T03:07:51;97962.66;;;6.05;100.00
54936;BME280;40838;50.676;7.838;2023-04-28T03:13:22;97960.84;;;5.78;100.00
54936;BME280;40838;50.676;7.838;2023-04-28T03:15:49;97955.91;;;5.50;100.00
54936;BME280;40838;50.676;7.838;2023-04-28T03:21:57;97949.31;;;5.52;100.00
54936;BME280;40838;50.676;7.838;2023-04-28T03:24:42;97938.13;;;5.40;100.00
54936;BME280;40838;50.676;7.838;2023-04-28T03:27:09;97942.09;;;5.43;100.00
54936;BME280;40838;50.676;7.838;2023-04-28T03:32:42;97936.88;;;5.16;100.00
54936;BME280;40838;50.676;7.838;2023-04-28T03:35:08;97925.69;;;5.35;100.00
54936;BME280;40838;50.676;7.838;2023-04-28T03:37:38;97925.56;;;5.57;100.00
54936;BME280;40838;50.676;7.838;2023-04-28T03:40:07;97919.25;;;5.64;100.00
54936;BME280;40838;50.676;7.838;2023-04-28T03:42:53;97923.00;;;5.68;100.00
54936;BME280;40838;50.676;7.838;2023-04-28T03:45:27;97920.28;;;5.57;100.00
54936;BME280;40838;50.676;7.838;2023-04-28T03:47:54;97913.53;;;5.77;100.00
54936;BME280;40838;50.676;7.838;2023-04-28T03:50:21;97921.72;;;5.70;100.00
54936;BME280;40838;50.676;7.838;2023-04-28T03:53:25;97916.38;;;5.65;100.00
54936;BME280;40838;50.676;7.838;2023-04-28T03:55:53;97903.66;;;5.99;100.00
54936;BME280;40838;50.676;7.838;2023-04-28T04:01:23;97905.78;;;6.08;100.00
54936;BME280;40838;50.676;7.838;2023-04-28T04:03:50;97916.22;;;5.82;100.00
54936;BME280;40838;50.676;7.838;2023-04-28T04:06:17;97920.84;;;6.02;100.00
54936;BME280;40838;50.676;7.838;2023-04-28T04:09:05;97915.34;;;6.14;100.00
54936;BME280;40838;50.676;7.838;2023-04-28T04:11:50;97918.75;;;6.04;100.00
54936;BME280;40838;50.676;7.838;2023-04-28T04:14:36;97919.00;;;6.02;100.00
54936;BME280;40838;50.676;7.838;2023-04-28T04:19:48;97906.34;;;6.10;100.00
54936;BME280;40838;50.676;7.838;2023-04-28T04:22:15;97907.16;;;5.68;100.00
54936;BME280;40838;50.676;7.838;2023-04-28T04:27:51;97910.31;;;5.70;100.00
54936;BME280;40838;50.676;7.838;2023-04-28T04:33:23;97901.41;;;5.76;100.00
54936;BME280;40838;50.676;7.838;2023-04-28T04:36:26;97903.06;;;5.50;100.00
54936;BME280;40838;50.676;7.838;2023-04-28T04:38:56;97895.31;;;5.38;100.00
54936;BME280;40838;50.676;7.838;2023-04-28T04:44:30;97887.41;;;5.43;100.00
54936;BME280;40838;50.676;7.838;2023-04-28T04:46:57;97885.78;;;5.37;100.00
54936;BME280;40838;50.676;7.838;2023-04-28T04:49:24;97885.50;;;5.33;100.00
54936;BME280;40838;50.676;7.838;2023-04-28T04:54:55;97885.47;;;5.28;100.00
54936;BME280;40838;50.676;7.838;2023-04-28T05:00:45;97878.59;;;4.95;100.00
54936;BME280;40838;50.676;7.838;2023-04-28T05:03:12;97870.69;;;5.27;100.00
54936;BME280;40838;50.676;7.838;2023-04-28T05:08:39;97874.75;;;5.45;100.00
54936;BME280;40838;50.676;7.838;2023-04-28T05:11:06;97871.97;;;5.25;100.00
54936;BME280;40838;50.676;7.838;2023-04-28T05:14:09;97876.59;;;5.07;100.00
54936;BME280;40838;50.676;7.838;2023-04-28T05:16:40;97873.22;;;5.17;100.00
54936;BME280;40838;50.676;7.838;2023-04-28T05:19:13;97865.44;;;5.38;100.00
54936;BME280;40838;50.676;7.838;2023-04-28T05:24:26;97874.06;;;5.23;100.00
54936;BME280;40838;50.676;7.838;2023-04-28T05:32:45;97867.28;;;5.32;100.00
54936;BME280;40838;50.676;7.838;2023-04-28T05:35:30;97854.41;;;5.03;100.00
54936;BME280;40838;50.676;7.838;2023-04-28T05:43:29;97876.38;;;5.14;100.00
54936;BME280;40838;50.676;7.838;2023-04-28T05:49:01;97882.31;;;5.31;100.00
54936;BME280;40838;50.676;7.838;2023-04-28T05:54:32;97905.97;;;5.16;100.00
54936;BME280;40838;50.676;7.838;2023-04-28T05:56:59;97906.56;;;5.23;100.00
54936;BME280;40838;50.676;7.838;2023-04-28T06:03:08;97890.28;;;5.04;100.00
54936;BME280;40838;50.676;7.838;2023-04-28T06:05:40;97886.66;;;5.48;100.00
54936;BME280;40838;50.676;7.838;2023-04-28T06:08:08;97879.41;;;5.28;100.00
54936;BME280;40838;50.676;7.838;2023-04-28T06:10:35;97874.56;;;5.20;100.00
54936;BME280;40838;50.676;7.838;2023-04-28T06:13:02;97861.91;;;5.22;100.00
54936;BME280;40838;50.676;7.838;2023-04-28T06:15:31;97868.59;;;4.97;100.00
54936;BME280;40838;50.676;7.838;2023-04-28T06:18:20;97875.81;;;5.07;100.00
54936;BME280;40838;50.676;7.838;2023-04-28T06:23:50;97864.22;;;4.81;100.00
54936;BME280;40838;50.676;7.838;2023-04-28T06:26:35;97859.56;;;4.93;100.00
54936;BME280;40838;50.676;7.838;2023-04-28T06:29:20;97874.69;;;4.71;100.00
54936;BME280;40838;50.676;7.838;2023-04-28T06:32:06;97860.13;;;4.95;100.00
54936;BME280;40838;50.676;7.838;2023-04-28T06:34:34;97866.19;;;4.96;100.00
54936;BME280;40838;50.676;7.838;2023-04-28T06:43:11;97858.94;;;4.81;100.00
54936;BME280;40838;50.676;7.838;2023-04-28T06:49:08;97868.34;;;4.99;100.00
54936;BME280;40838;50.676;7.838;2023-04-28T06:54:39;97848.94;;;4.83;100.00
54936;BME280;40838;50.676;7.838;2023-04-28T07:00:30;97842.31;;;4.80;100.00
54936;BME280;40838;50.676;7.838;2023-04-28T07:03:14;97852.84;;;5.07;100.00
54936;BME280;40838;50.676;7.838;2023-04-28T07:08:44;97862.28;;;5.35;100.00
54936;BME280;40838;50.676;7.838;2023-04-28T07:11:11;97858.66;;;5.47;100.00
54936;BME280;40838;50.676;7.838;2023-04-28T07:13:37;97863.41;;;5.45;100.00
54936;BME280;40838;50.676;7.838;2023-04-28T07:27:43;97876.19;;;5.21;100.00
54936;BME280;40838;50.676;7.838;2023-04-28T07:32:56;97862.91;;;5.48;100.00
54936;BME280;40838;50.676;7.838;2023-04-28T07:35:41;97863.09;;;5.36;100.00
54936;BME280;40838;50.676;7.838;2023-04-28T07:38:08;97862.63;;;5.49;100.00
54936;BME280;40838;50.676;7.838;2023-04-28T07:40:34;97873.03;;;5.24;100.00
54936;BME280;40838;50.676;7.838;2023-04-28T07:43:02;97859.50;;;5.20;100.00
54936;BME280;40838;50.676;7.838;2023-04-28T07:45:29;97855.91;;;5.74;100.00
54936;BME280;40838;50.676;7.838;2023-04-28T07:47:56;97870.97;;;5.73;100.00
54936;BME280;40838;50.676;7.838;2023-04-28T07:50:23;97871.56;;;5.38;100.00
54936;BME280;40838;50.676;7.838;2023-04-28T07:58:57;97874.66;;;6.25;100.00
54936;BME280;40838;50.676;7.838;2023-04-28T08:01:24;97875.19;;;6.27;100.00
54936;BME280;40838;50.676;7.838;2023-04-28T08:03:51;97877.81;;;6.22;100.00
54936;BME280;40838;50.676;7.838;2023-04-28T08:06:35;97867.97;;;5.97;100.00
54936;BME280;40838;50.676;7.838;2023-04-28T08:09:03;97873.28;;;6.07;100.00
54936;BME280;40838;50.676;7.838;2023-04-28T08:14:16;97877.97;;;6.73;100.00
54936;BME280;40838;50.676;7.838;2023-04-28T08:17:01;97885.66;;;6.95;100.00
54936;BME280;40838;50.676;7.838;2023-04-28T08:19:28;97877.69;;;6.64;100.00
54936;BME280;40838;50.676;7.838;2023-04-28T08:21:54;97878.41;;;6.29;100.00
54936;BME280;40838;50.676;7.838;2023-04-28T08:24:22;97878.75;;;6.58;100.00
54936;BME280;40838;50.676;7.838;2023-04-28T08:27:06;97869.19;;;6.57;100.00
54936;BME280;40838;50.676;7.838;2023-04-28T08:29:34;97878.13;;;6.25;100.00
54936;BME280;40838;50.676;7.838;2023-04-28T08:32:01;97877.38;;;6.40;100.00
54936;BME280;40838;50.676;7.838;2023-04-28T08:34:30;97881.38;;;6.63;100.00
54936;BME280;40838;50.676;7.838;2023-04-28T08:39:42;97899.88;;;6.48;100.00
54936;BME280;40838;50.676;7.838;2023-04-28T08:42:48;97897.13;;;7.31;100.00
54936;BME280;40838;50.676;7.838;2023-04-28T08:45:36;97898.13;;;7.00;100.00
54936;BME280;40838;50.676;7.838;2023-04-28T08:50:51;97893.06;;;6.73;100.00
54936;BME280;40838;50.676;7.838;2023-04-28T08:53:36;97901.84;;;7.14;100.00
54936;BME280;40838;50.676;7.838;2023-04-28T08:59:07;97903.41;;;7.10;100.00
54936;BME280;40838;50.676;7.838;2023-04-28T09:01:35;97895.22;;;7.16;100.00
54936;BME280;40838;50.676;7.838;2023-04-28T09:04:03;97896.53;;;6.88;100.00
54936;BME280;40838;50.676;7.838;2023-04-28T09:06:48;97907.38;;;6.82;100.00
54936;BME280;40838;50.676;7.838;2023-04-28T09:09:24;97915.06;;;7.19;100.00
54936;BME280;40838;50.676;7.838;2023-04-28T09:11:51;97901.09;;;7.34;100.00
54936;BME280;40838;50.676;7.838;2023-04-28T09:17:22;97893.00;;;8.00;100.00
54936;BME280;40838;50.676;7.838;2023-04-28T09:20:18;97886.09;;;8.69;100.00
54936;BME280;40838;50.676;7.838;2023-04-28T09:22:44;97894.06;;;9.38;100.00
54936;BME280;40838;50.676;7.838;2023-04-28T09:25:11;97887.13;;;9.42;100.00
54936;BME280;40838;50.676;7.838;2023-04-28T09:30:41;97881.16;;;11.41;100.00
54936;BME280;40838;50.676;7.838;2023-04-28T09:36:13;97868.06;;;10.74;100.00
54936;BME280;40838;50.676;7.838;2023-04-28T09:38:51;97864.81;;;9.67;100.00
54936;BME280;40838;50.676;7.838;2023-04-28T09:44:39;97861.97;;;9.87;100.00
54936;BME280;40838;50.676;7.838;2023-04-28T09:47:18;97865.63;;;9.38;100.00
54936;BME280;40838;50.676;7.838;2023-04-28T09:50:08;97853.22;;;9.29;100.00
54936;BME280;40838;50.676;7.838;2023-04-28T09:52:56;97841.50;;;10.69;100.00
54936;BME280;40838;50.676;7.838;2023-04-28T09:55:23;97842.00;;;9.90;100.00
54936;BME280;40838;50.676;7.838;2023-04-28T10:00:54;97851.34;;;10.68;100.00
54936;BME280;40838;50.676;7.838;2023-04-28T10:09:29;97841.50;;;12.58;100.00
54936;BME280;40838;50.676;7.838;2023-04-28T10:12:34;97833.00;;;12.56;100.00
54936;BME280;40838;50.676;7.838;2023-04-28T10:15:38;97844.44;;;12.34;100.00
54936;BME280;40838;50.676;7.838;2023-04-28T10:21:10;97847.97;;;10.63;100.00
54936;BME280;40838;50.676;7.838;2023-04-28T10:23:46;97844.25;;;10.02;100.00
54936;BME280;40838;50.676;7.838;2023-04-28T10:29:23;97841.13;;;10.19;100.00
54936;BME280;40838;50.676;7.838;2023-04-28T10:32:18;97841.84;;;10.43;100.00
54936;BME280;40838;50.676;7.838;2023-04-28T10:40:53;97833.22;;;10.89;100.00
54936;BME280;40838;50.676;7.838;2023-04-28T10:43:43;97825.34;;;12.27;100.00
54936;BME280;40838;50.676;7.838;2023-04-28T10:55:31;97810.25;;;13.04;100.00
54936;BME280;40838;50.676;7.838;2023-04-28T10:58:31;97819.03;;;13.58;100.00
54936;BME280;40838;50.676;7.838;2023-04-28T11:15:37;97813.72;;;12.23;100.00
54936;BME280;40838;50.676;7.838;2023-04-28T11:18:51;97810.19;;;12.73;100.00
54936;BME280;40838;50.676;7.838;2023-04-28T11:21:18;97805.78;;;12.91;100.00
54936;BME280;40838;50.676;7.838;2023-04-28T11:29:36;97812.66;;;11.97;100.00
54936;BME280;40838;50.676;7.838;2023-04-28T11:32:05;97815.72;;;11.76;100.00
54936;BME280;40838;50.676;7.838;2023-04-28T11:34:34;97814.50;;;11.68;100.00
54936;BME280;40838;50.676;7.838;2023-04-28T11:37:01;97798.19;;;12.48;100.00
54936;BME280;40838;50.676;7.838;2023-04-28T11:39:28;97811.06;;;12.09;100.00
54936;BME280;40838;50.676;7.838;2023-04-28T11:41:55;97814.06;;;12.30;100.00
54936;BME280;40838;50.676;7.838;2023-04-28T11:44:23;97815.19;;;11.74;100.00
54936;BME280;40838;50.676;7.838;2023-04-28T11:46:51;97817.41;;;12.00;100.00
54936;BME280;40838;50.676;7.838;2023-04-28T11:49:21;97820.72;;;11.50;100.00
54936;BME280;40838;50.676;7.838;2023-04-28T11:52:06;97811.34;;;11.66;100.00
54936;BME280;40838;50.676;7.838;2023-04-28T11:55:11;97821.72;;;11.96;100.00
54936;BME280;40838;50.676;7.838;2023-04-28T11:58:18;97823.19;;;11.74;100.00
54936;BME280;40838;50.676;7.838;2023-04-28T12:01:27;97818.38;;;12.04;100.00
54936;BME280;40838;50.676;7.838;2023-04-28T12:03:54;97809.13;;;12.96;100.00
54936;BME280;40838;50.676;7.838;2023-04-28T12:06:22;97804.88;;;14.06;100.00
54936;BME280;40838;50.676;7.838;2023-04-28T12:09:16;97805.94;;;13.48;100.00
54936;BME280;40838;50.676;7.838;2023-04-28T12:14:52;97810.31;;;13.13;100.00
54936;BME280;40838;50.676;7.838;2023-04-28T12:17:55;97809.56;;;12.53;100.00
54936;BME280;40838;50.676;7.838;2023-04-28T12:23:58;97813.69;;;13.58;100.00
54936;BME280;40838;50.676;7.838;2023-04-28T12:27:17;97808.06;;;14.43;100.00
54936;BME280;40838;50.676;7.838;2023-04-28T12:30:01;97805.09;;;15.91;100.00
54936;BME280;40838;50.676;7.838;2023-04-28T12:32:37;97795.88;;;16.84;100.00
54936;BME280;40838;50.676;7.838;2023-04-28T12:35:05;97789.19;;;16.70;100.00
54936;BME280;40838;50.676;7.838;2023-04-28T12:37:50;97793.50;;;17.04;100.00
54936;BME280;40838;50.676;7.838;2023-04-28T12:40:19;97797.56;;;16.05;100.00
54936;BME280;40838;50.676;7.838;2023-04-28T12:42:47;97792.00;;;13.68;100.00
54936;BME280;40838;50.676;7.838;2023-04-28T12:45:14;97780.59;;;15.07;100.00
54936;BME280;40838;50.676;7.838;2023-04-28T12:47:41;97788.66;;;15.63;100.00
54936;BME280;40838;50.676;7.838;2023-04-28T12:52:56;97791.22;;;14.51;100.00
54936;BME280;40838;50.676;7.838;2023-04-28T12:55:24;97779.97;;;15.10;100.00
54936;BME280;40838;50.676;7.838;2023-04-28T13:00:54;97772.31;;;15.47;100.00
54936;BME280;40838;50.676;7.838;2023-04-28T13:03:38;97777.72;;;15.29;100.00
54936;BME280;40838;50.676;7.838;2023-04-28T13:06:05;97786.63;;;15.04;100.00
54936;BME280;40838;50.676;7.838;2023-04-28T13:08:51;97780.38;;;14.74;100.00
54936;BME280;40838;50.676;7.838;2023-04-28T13:17:26;97768.22;;;16.63;100.00
54936;BME280;40838;50.676;7.838;2023-04-28T13:20:12;97771.31;;;15.81;100.00
54936;BME280;40838;50.676;7.838;2023-04-28T13:25:41;97776.81;;;14.99;100.00
54936;BME280;40838;50.676;7.838;2023-04-28T13:28:44;97771.72;;;15.24;100.00
54936;BME280;40838;50.676;7.838;2023-04-28T13:31:11;97766.03;;;16.23;100.00
54936;BME280;40838;50.676;7.838;2023-04-28T13:33:39;97754.94;;;17.00;100.00
54936;BME280;40838;50.676;7.838;2023-04-28T13:36:24;97746.13;;;17.48;100.00
54936;BME280;40838;50.676;7.838;2023-04-28T13:38:51;97735.59;;;16.85;100.00
54936;BME280;40838;50.676;7.838;2023-04-28T13:41:17;97722.91;;;17.31;100.00
54936;BME280;40838;50.676;7.838;2023-04-28T13:43:44;97729.44;;;15.89;100.00
54936;BME280;40838;50.676;7.838;2023-04-28T13:46:28;97732.34;;;15.75;100.00
54936;BME280;40838;50.676;7.838;2023-04-28T13:48:56;97729.34;;;16.27;100.00
54936;BME280;40838;50.676;7.838;2023-04-28T13:51:59;97726.28;;;16.83;100.00
54936;BME280;40838;50.676;7.838;2023-04-28T13:54:27;97724.28;;;16.92;100.00
54936;BME280;40838;50.676;7.838;2023-04-28T13:56:54;97722.69;;;17.24;99.60
54936;BME280;40838;50.676;7.838;2023-04-28T14:02:07;97719.25;;;16.57;100.00
54936;BME280;40838;50.676;7.838;2023-04-28T14:04:55;97717.72;;;15.64;100.00
54936;BME280;40838;50.676;7.838;2023-04-28T14:10:25;97720.56;;;14.73;100.00
54936;BME280;40838;50.676;7.838;2023-04-28T14:16:13;97706.41;;;14.38;100.00
54936;BME280;40838;50.676;7.838;2023-04-28T14:19:16;97711.28;;;15.65;100.00
54936;BME280;40838;50.676;7.838;2023-04-28T14:22:03;97695.53;;;14.69;100.00
54936;BME280;40838;50.676;7.838;2023-04-28T14:24:29;97698.25;;;15.46;100.00
54936;BME280;40838;50.676;7.838;2023-04-28T14:26:56;97701.81;;;15.20;100.00
54936;BME280;40838;50.676;7.838;2023-04-28T14:29:59;97689.63;;;16.78;96.71
54936;BME280;40838;50.676;7.838;2023-04-28T14:33:02;97694.41;;;17.06;97.30
54936;BME280;40838;50.676;7.838;2023-04-28T14:35:46;97698.75;;;16.11;98.66
54936;BME280;40838;50.676;7.838;2023-04-28T14:38:14;97695.81;;;16.04;100.00
54936;BME280;40838;50.676;7.838;2023-04-28T14:41:01;97689.81;;;15.26;100.00
54936;BME280;40838;50.676;7.838;2023-04-28T14:43:28;97677.63;;;16.30;99.16
54936;BME280;40838;50.676;7.838;2023-04-28T14:48:43;97679.84;;;16.61;98.26
54936;BME280;40838;50.676;7.838;2023-04-28T14:51:10;97678.94;;;16.57;98.38
54936;BME280;40838;50.676;7.838;2023-04-28T14:53:57;97676.94;;;16.67;99.56
54936;BME280;40838;50.676;7.838;2023-04-28T14:59:27;97666.16;;;17.12;96.74
54936;BME280;40838;50.676;7.838;2023-04-28T15:02:11;97679.66;;;16.79;97.51
54936;BME280;40838;50.676;7.838;2023-04-28T15:04:56;97680.88;;;16.69;97.66
54936;BME280;40838;50.676;7.838;2023-04-28T15:07:23;97665.88;;;16.80;96.47
54936;BME280;40838;50.676;7.838;2023-04-28T15:13:00;97651.22;;;17.76;93.21
54936;BME280;40838;50.676;7.838;2023-04-28T15:15:45;97657.28;;;17.48;92.63
54936;BME280;40838;50.676;7.838;2023-04-28T15:18:31;97658.38;;;17.84;91.30
54936;BME280;40838;50.676;7.838;2023-04-28T15:20:57;97669.53;;;17.09;94.98
54936;BME280;40838;50.676;7.838;2023-04-28T15:23:43;97660.94;;;17.68;90.02
54936;BME280;40838;50.676;7.838;2023-04-28T15:28:57;97661.56;;;17.37;89.20
54936;BME280;40838;50.676;7.838;2023-04-28T15:31:43;97662.88;;;16.15;95.25
54936;BME280;40838;50.676;7.838;2023-04-28T15:34:10;97674.94;;;16.09;97.64
54936;BME280;40838;50.676;7.838;2023-04-28T15:39:41;97665.81;;;16.02;98.22
54936;BME280;40838;50.676;7.838;2023-04-28T15:42:25;97664.31;;;15.92;99.94
54936;BME280;40838;50.676;7.838;2023-04-28T15:45:12;97649.25;;;16.00;98.79
54936;BME280;40838;50.676;7.838;2023-04-28T15:51:00;97644.25;;;14.71;100.00
54936;BME280;40838;50.676;7.838;2023-04-28T16:02:41;97682.19;;;15.67;100.00
54936;BME280;40838;50.676;7.838;2023-04-28T16:05:26;97679.91;;;16.19;100.00
54936;BME280;40838;50.676;7.838;2023-04-28T16:07:53;97686.41;;;16.52;100.00
54936;BME280;40838;50.676;7.838;2023-04-28T16:10:20;97697.47;;;16.83;100.00
54936;BME280;40838;50.676;7.838;2023-04-28T16:13:03;97699.09;;;15.88;100.00
54936;BME280;40838;50.676;7.838;2023-04-28T16:15:53;97703.34;;;15.00;100.00
54936;BME280;40838;50.676;7.838;2023-04-28T16:18:38;97708.47;;;14.58;100.00
54936;BME280;40838;50.676;7.838;2023-04-28T16:21:41;97702.63;;;14.48;100.00
54936;BME280;40838;50.676;7.838;2023-04-28T16:24:09;97694.44;;;14.44;100.00
54936;BME280;40838;50.676;7.838;2023-04-28T16:29:22;97681.41;;;15.87;100.00
54936;BME280;40838;50.676;7.838;2023-04-28T16:31:49;97699.88;;;15.68;100.00
54936;BME280;40838;50.676;7.838;2023-04-28T16:34:17;97701.78;;;15.88;100.00
54936;BME280;40838;50.676;7.838;2023-04-28T16:36:44;97702.03;;;15.74;100.00
54936;BME280;40838;50.676;7.838;2023-04-28T16:39:30;97709.38;;;14.89;100.00
54936;BME280;40838;50.676;7.838;2023-04-28T16:41:57;97708.25;;;15.28;100.00
54936;BME280;40838;50.676;7.838;2023-04-28T16:44:28;97708.13;;;16.05;100.00
54936;BME280;40838;50.676;7.838;2023-04-28T16:47:12;97717.63;;;15.13;100.00
54936;BME280;40838;50.676;7.838;2023-04-28T16:49:58;97718.69;;;15.89;100.00
54936;BME280;40838;50.676;7.838;2023-04-28T16:52:24;97717.16;;;16.30;100.00
54936;BME280;40838;50.676;7.838;2023-04-28T16:54:51;97727.94;;;16.42;100.00
54936;BME280;40838;50.676;7.838;2023-04-28T16:57:35;97719.16;;;16.66;100.00
54936;BME280;40838;50.676;7.838;2023-04-28T17:00:20;97723.94;;;15.56;100.00
54936;BME280;40838;50.676;7.838;2023-04-28T17:03:14;97721.06;;;15.22;100.00
54936;BME280;40838;50.676;7.838;2023-04-28T17:06:07;97721.69;;;15.28;100.00
54936;BME280;40838;50.676;7.838;2023-04-28T17:08:35;97732.47;;;15.11;100.00
54936;BME280;40838;50.676;7.838;2023-04-28T17:11:02;97731.47;;;14.86;97.19
54936;BME280;40838;50.676;7.838;2023-04-28T17:13:29;97733.06;;;14.69;97.17
54936;BME280;40838;50.676;7.838;2023-04-28T17:15:56;97728.63;;;14.65;96.60
54936;BME280;40838;50.676;7.838;2023-04-28T17:18:24;97734.28;;;14.80;95.50
54936;BME280;40838;50.676;7.838;2023-04-28T17:20:51;97738.97;;;15.01;95.34
54936;BME280;40838;50.676;7.838;2023-04-28T17:23:19;97729.06;;;14.93;96.98
54936;BME280;40838;50.676;7.838;2023-04-28T17:25:46;97744.06;;;14.42;99.28
54936;BME280;40838;50.676;7.838;2023-04-28T17:28:12;97743.75;;;14.08;100.00
54936;BME280;40838;50.676;7.838;2023-04-28T17:30:39;97746.28;;;14.05;100.00
54936;BME280;40838;50.676;7.838;2023-04-28T17:33:05;97754.00;;;14.06;100.00
54936;BME280;40838;50.676;7.838;2023-04-28T17:35:32;97761.69;;;13.90;100.00
54936;BME280;40838;50.676;7.838;2023-04-28T17:37:58;97775.22;;;13.85;100.00
54936;BME280;40838;50.676;7.838;2023-04-28T17:40:26;97775.38;;;13.80;100.00
54936;BME280;40838;50.676;7.838;2023-04-28T17:42:53;97785.19;;;13.62;100.00
54936;BME280;40838;50.676;7.838;2023-04-28T17:45:20;97779.59;;;13.73;100.00
54936;BME280;40838;50.676;7.838;2023-04-28T17:47:50;97790.28;;;13.33;100.00
54936;BME280;40838;50.676;7.838;2023-04-28T17:50:17;97790.13;;;12.75;100.00
54936;BME280;40838;50.676;7.838;2023-04-28T17:52:43;97788.22;;;12.98;100.00
54936;BME280;40838;50.676;7.838;2023-04-28T17:55:10;97809.47;;;12.45;100.00
54936;BME280;40838;50.676;7.838;2023-04-28T17:57:38;97806.25;;;12.70;100.00
54936;BME280;40838;50.676;7.838;2023-04-28T18:00:05;97815.94;;;12.44;100.00
54936;BME280;40838;50.676;7.838;2023-04-28T18:02:37;97813.41;;;12.61;100.00
54936;BME280;40838;50.676;7.838;2023-04-28T18:05:03;97820.16;;;12.45;100.00
54936;BME280;40838;50.676;7.838;2023-04-28T18:07:31;97837.56;;;12.20;100.00
54936;BME280;40838;50.676;7.838;2023-04-28T18:09:57;97838.72;;;12.27;100.00
54936;BME280;40838;50.676;7.838;2023-04-28T18:12:24;97846.75;;;12.13;100.00
54936;BME280;40838;50.676;7.838;2023-04-28T18:14:52;97846.34;;;12.06;100.00
54936;BME280;40838;50.676;7.838;2023-04-28T18:17:19;97850.31;;;11.95;100.00
54936;BME280;40838;50.676;7.838;2023-04-28T18:19:47;97852.28;;;11.89;100.00
54936;BME280;40838;50.676;7.838;2023-04-28T18:22:15;97850.28;;;11.67;100.00
54936;BME280;40838;50.676;7.838;2023-04-28T18:24:42;97860.06;;;11.58;100.00
54936;BME280;40838;50.676;7.838;2023-04-28T18:27:09;97850.34;;;11.49;100.00